sensor_id;sensor_type;location;lat;lon;timestamp;P1;durP1;ratioP1;P2;durP2;ratioP2
66559;SDS011;53413;49.878;8.142;2023-12-22T00:01:50;0.27;;;0.10;;
66559;SDS011;53413;49.878;8.142;2023-12-22T00:04:15;0.73;;;0.20;;
66559;SDS011;53413;49.878;8.142;2023-12-22T00:06:41;0.83;;;0.10;;
66559;SDS011;53413;49.878;8.142;2023-12-22T00:09:06;0.77;;;0.20;;
66559;SDS011;53413;49.878;8.142;2023-12-22T00:11:35;0.80;;;0.20;;
66559;SDS011;53413;49.878;8.142;2023-12-22T00:14:00;1.10;;;0.20;;
66559;SDS011;53413;49.878;8.142;2023-12-22T00:16:25;0.73;;;0.20;;
66559;SDS011;53413;49.878;8.142;2023-12-22T00:18:51;0.40;;;0.20;;
66559;SDS011;53413;49.878;8.142;2023-12-22T00:21:17;0.90;;;0.20;;
66559;SDS011;53413;49.878;8.142;2023-12-22T00:23:42;1.00;;;0.20;;
66559;SDS011;53413;49.878;8.142;2023-12-22T00:26:08;0.93;;;0.30;;
66559;SDS011;53413;49.878;8.142;2023-12-22T00:28:33;1.03;;;0.30;;
66559;SDS011;53413;49.878;8.142;2023-12-22T00:30:58;0.90;;;0.20;;
66559;SDS011;53413;49.878;8.142;2023-12-22T00:33:24;0.40;;;0.10;;
66559;SDS011;53413;49.878;8.142;2023-12-22T00:35:50;0.68;;;0.20;;
66559;SDS011;53413;49.878;8.142;2023-12-22T00:38:16;0.50;;;0.15;;
66559;SDS011;53413;49.878;8.142;2023-12-22T00:40:41;0.57;;;0.20;;
66559;SDS011;53413;49.878;8.142;2023-12-22T00:43:07;0.93;;;0.30;;
66559;SDS011;53413;49.878;8.142;2023-12-22T00:45:32;0.53;;;0.20;;
66559;SDS011;53413;49.878;8.142;2023-12-22T00:47:57;1.13;;;0.23;;
66559;SDS011;53413;49.878;8.142;2023-12-22T00:50:23;1.00;;;0.30;;
66559;SDS011;53413;49.878;8.142;2023-12-22T00:52:48;0.87;;;0.20;;
66559;SDS011;53413;49.878;8.142;2023-12-22T00:55:14;0.73;;;0.20;;
66559;SDS011;53413;49.878;8.142;2023-12-22T00:57:39;0.60;;;0.20;;
66559;SDS011;53413;49.878;8.142;2023-12-22T01:00:04;0.90;;;0.20;;
66559;SDS011;53413;49.878;8.142;2023-12-22T01:02:34;1.33;;;0.32;;
66559;SDS011;53413;49.878;8.142;2023-12-22T01:04:59;2.43;;;0.43;;
66559;SDS011;53413;49.878;8.142;2023-12-22T01:07:24;1.83;;;0.30;;
66559;SDS011;53413;49.878;8.142;2023-12-22T01:09:50;2.15;;;0.30;;
66559;SDS011;53413;49.878;8.142;2023-12-22T01:12:16;1.77;;;0.50;;
66559;SDS011;53413;49.878;8.142;2023-12-22T01:14:41;1.70;;;0.30;;
66559;SDS011;53413;49.878;8.142;2023-12-22T01:17:10;1.92;;;0.40;;
66559;SDS011;53413;49.878;8.142;2023-12-22T01:19:35;2.30;;;0.30;;
66559;SDS011;53413;49.878;8.142;2023-12-22T01:22:00;2.67;;;0.60;;
66559;SDS011;53413;49.878;8.142;2023-12-22T01:24:26;3.73;;;0.60;;
66559;SDS011;53413;49.878;8.142;2023-12-22T01:26:51;2.57;;;0.50;;
66559;SDS011;53413;49.878;8.142;2023-12-22T01:29:16;2.10;;;0.50;;
66559;SDS011;53413;49.878;8.142;2023-12-22T01:31:42;2.53;;;0.38;;
66559;SDS011;53413;49.878;8.142;2023-12-22T01:34:07;1.20;;;0.40;;
66559;SDS011;53413;49.878;8.142;2023-12-22T01:36:33;2.03;;;0.50;;
66559;SDS011;53413;49.878;8.142;2023-12-22T01:38:59;3.38;;;0.57;;
66559;SDS011;53413;49.878;8.142;2023-12-22T01:41:24;2.63;;;0.40;;
66559;SDS011;53413;49.878;8.142;2023-12-22T01:43:50;2.97;;;0.57;;
66559;SDS011;53413;49.878;8.142;2023-12-22T01:46:15;2.53;;;0.53;;
66559;SDS011;53413;49.878;8.142;2023-12-22T01:48:41;3.83;;;0.55;;
66559;SDS011;53413;49.878;8.142;2023-12-22T01:51:07;4.77;;;0.60;;
66559;SDS011;53413;49.878;8.142;2023-12-22T01:53:32;4.13;;;0.67;;
66559;SDS011;53413;49.878;8.142;2023-12-22T01:55:58;2.67;;;0.50;;
66559;SDS011;53413;49.878;8.142;2023-12-22T01:58:26;3.53;;;0.40;;
66559;SDS011;53413;49.878;8.142;2023-12-22T02:00:54;4.70;;;0.60;;
66559;SDS011;53413;49.878;8.142;2023-12-22T02:03:20;5.38;;;0.70;;
66559;SDS011;53413;49.878;8.142;2023-12-22T02:05:46;2.97;;;0.60;;
66559;SDS011;53413;49.878;8.142;2023-12-22T02:08:11;3.13;;;0.50;;
66559;SDS011;53413;49.878;8.142;2023-12-22T02:10:37;2.53;;;0.40;;
66559;SDS011;53413;49.878;8.142;2023-12-22T02:13:05;2.67;;;0.60;;
66559;SDS011;53413;49.878;8.142;2023-12-22T02:15:31;1.98;;;0.40;;
66559;SDS011;53413;49.878;8.142;2023-12-22T02:20:35;2.95;;;0.50;;
66559;SDS011;53413;49.878;8.142;2023-12-22T02:23:01;1.92;;;0.50;;
66559;SDS011;53413;49.878;8.142;2023-12-22T02:25:27;2.47;;;0.47;;
66559;SDS011;53413;49.878;8.142;2023-12-22T02:30:27;2.20;;;0.40;;
66559;SDS011;53413;49.878;8.142;2023-12-22T02:33:15;4.85;;;0.63;;
66559;SDS011;53413;49.878;8.142;2023-12-22T02:35:41;2.80;;;0.45;;
66559;SDS011;53413;49.878;8.142;2023-12-22T02:38:07;2.57;;;0.50;;
66559;SDS011;53413;49.878;8.142;2023-12-22T02:40:34;2.95;;;0.68;;
66559;SDS011;53413;49.878;8.142;2023-12-22T02:43:00;5.03;;;0.70;;
66559;SDS011;53413;49.878;8.142;2023-12-22T02:45:27;4.50;;;0.70;;
66559;SDS011;53413;49.878;8.142;2023-12-22T02:47:52;2.53;;;0.30;;
66559;SDS011;53413;49.878;8.142;2023-12-22T02:50:18;2.63;;;0.50;;
66559;SDS011;53413;49.878;8.142;2023-12-22T02:52:43;4.80;;;0.75;;
66559;SDS011;53413;49.878;8.142;2023-12-22T02:55:08;3.60;;;0.70;;
66559;SDS011;53413;49.878;8.142;2023-12-22T02:57:34;2.63;;;0.40;;
66559;SDS011;53413;49.878;8.142;2023-12-22T02:59:59;3.93;;;0.70;;
66559;SDS011;53413;49.878;8.142;2023-12-22T03:02:25;1.92;;;0.40;;
66559;SDS011;53413;49.878;8.142;2023-12-22T03:04:50;2.78;;;0.40;;
66559;SDS011;53413;49.878;8.142;2023-12-22T03:07:16;3.83;;;0.80;;
66559;SDS011;53413;49.878;8.142;2023-12-22T03:09:41;2.77;;;0.60;;
66559;SDS011;53413;49.878;8.142;2023-12-22T03:12:07;3.83;;;0.65;;
66559;SDS011;53413;49.878;8.142;2023-12-22T03:14:33;2.80;;;0.50;;
66559;SDS011;53413;49.878;8.142;2023-12-22T03:17:02;2.80;;;0.60;;
66559;SDS011;53413;49.878;8.142;2023-12-22T03:19:29;3.90;;;0.60;;
66559;SDS011;53413;49.878;8.142;2023-12-22T03:21:55;4.53;;;0.70;;
66559;SDS011;53413;49.878;8.142;2023-12-22T03:24:21;4.05;;;0.70;;
66559;SDS011;53413;49.878;8.142;2023-12-22T03:26:48;5.30;;;0.88;;
66559;SDS011;53413;49.878;8.142;2023-12-22T03:29:14;4.47;;;0.68;;
66559;SDS011;53413;49.878;8.142;2023-12-22T03:31:40;4.27;;;0.73;;
66559;SDS011;53413;49.878;8.142;2023-12-22T03:34:05;2.17;;;0.50;;
66559;SDS011;53413;49.878;8.142;2023-12-22T03:36:30;2.00;;;0.40;;
66559;SDS011;53413;49.878;8.142;2023-12-22T03:38:56;1.97;;;0.60;;
66559;SDS011;53413;49.878;8.142;2023-12-22T03:41:21;3.93;;;0.60;;
66559;SDS011;53413;49.878;8.142;2023-12-22T03:43:47;2.57;;;0.50;;
66559;SDS011;53413;49.878;8.142;2023-12-22T03:46:12;1.63;;;0.30;;
66559;SDS011;53413;49.878;8.142;2023-12-22T03:48:37;1.90;;;0.47;;
66559;SDS011;53413;49.878;8.142;2023-12-22T03:51:03;1.43;;;0.40;;
66559;SDS011;53413;49.878;8.142;2023-12-22T03:53:28;3.10;;;0.43;;
66559;SDS011;53413;49.878;8.142;2023-12-22T03:55:54;0.73;;;0.30;;
66559;SDS011;53413;49.878;8.142;2023-12-22T03:58:19;2.10;;;0.32;;
66559;SDS011;53413;49.878;8.142;2023-12-22T04:00:45;2.27;;;0.40;;
66559;SDS011;53413;49.878;8.142;2023-12-22T04:03:10;1.13;;;0.20;;
66559;SDS011;53413;49.878;8.142;2023-12-22T04:05:35;1.37;;;0.30;;
66559;SDS011;53413;49.878;8.142;2023-12-22T04:08:01;1.40;;;0.30;;
66559;SDS011;53413;49.878;8.142;2023-12-22T04:10:26;2.10;;;0.30;;
66559;SDS011;53413;49.878;8.142;2023-12-22T04:12:52;1.60;;;0.30;;
66559;SDS011;53413;49.878;8.142;2023-12-22T04:15:17;2.30;;;0.33;;
66559;SDS011;53413;49.878;8.142;2023-12-22T04:17:42;1.77;;;0.33;;
66559;SDS011;53413;49.878;8.142;2023-12-22T04:20:08;2.07;;;0.50;;
66559;SDS011;53413;49.878;8.142;2023-12-22T04:22:33;1.77;;;0.32;;
66559;SDS011;53413;49.878;8.142;2023-12-22T04:24:59;3.28;;;0.50;;
66559;SDS011;53413;49.878;8.142;2023-12-22T04:27:24;2.83;;;0.60;;
66559;SDS011;53413;49.878;8.142;2023-12-22T04:29:50;2.00;;;0.53;;
66559;SDS011;53413;49.878;8.142;2023-12-22T04:32:15;3.23;;;0.67;;
66559;SDS011;53413;49.878;8.142;2023-12-22T04:34:40;2.33;;;0.60;;
66559;SDS011;53413;49.878;8.142;2023-12-22T04:37:06;4.50;;;0.70;;
66559;SDS011;53413;49.878;8.142;2023-12-22T04:39:31;3.57;;;0.63;;
66559;SDS011;53413;49.878;8.142;2023-12-22T04:41:56;4.10;;;0.60;;
66559;SDS011;53413;49.878;8.142;2023-12-22T04:44:22;2.73;;;0.60;;
66559;SDS011;53413;49.878;8.142;2023-12-22T04:46:47;2.60;;;0.60;;
66559;SDS011;53413;49.878;8.142;2023-12-22T04:49:12;4.80;;;0.60;;
66559;SDS011;53413;49.878;8.142;2023-12-22T04:51:38;3.67;;;0.70;;
66559;SDS011;53413;49.878;8.142;2023-12-22T04:54:03;3.20;;;0.60;;
66559;SDS011;53413;49.878;8.142;2023-12-22T04:56:28;2.93;;;0.67;;
66559;SDS011;53413;49.878;8.142;2023-12-22T04:58:54;3.70;;;0.50;;
66559;SDS011;53413;49.878;8.142;2023-12-22T05:01:19;2.00;;;0.47;;
66559;SDS011;53413;49.878;8.142;2023-12-22T05:03:45;2.73;;;0.40;;
66559;SDS011;53413;49.878;8.142;2023-12-22T05:06:11;4.78;;;0.50;;
66559;SDS011;53413;49.878;8.142;2023-12-22T05:08:36;4.17;;;0.40;;
66559;SDS011;53413;49.878;8.142;2023-12-22T05:11:01;3.53;;;0.50;;
66559;SDS011;53413;49.878;8.142;2023-12-22T05:13:28;2.92;;;0.47;;
66559;SDS011;53413;49.878;8.142;2023-12-22T05:15:53;2.00;;;0.43;;
66559;SDS011;53413;49.878;8.142;2023-12-22T05:18:19;3.13;;;0.65;;
66559;SDS011;53413;49.878;8.142;2023-12-22T05:20:45;2.53;;;0.50;;
66559;SDS011;53413;49.878;8.142;2023-12-22T05:23:10;2.77;;;0.60;;
66559;SDS011;53413;49.878;8.142;2023-12-22T05:25:36;3.07;;;0.50;;
66559;SDS011;53413;49.878;8.142;2023-12-22T05:28:01;2.77;;;0.60;;
66559;SDS011;53413;49.878;8.142;2023-12-22T05:30:26;4.07;;;0.70;;
66559;SDS011;53413;49.878;8.142;2023-12-22T05:32:52;2.13;;;0.43;;
66559;SDS011;53413;49.878;8.142;2023-12-22T05:35:18;4.50;;;0.60;;
66559;SDS011;53413;49.878;8.142;2023-12-22T05:37:43;2.88;;;0.70;;
66559;SDS011;53413;49.878;8.142;2023-12-22T05:40:09;4.18;;;0.80;;
66559;SDS011;53413;49.878;8.142;2023-12-22T05:42:35;3.30;;;0.60;;
66559;SDS011;53413;49.878;8.142;2023-12-22T05:45:00;3.80;;;0.60;;
66559;SDS011;53413;49.878;8.142;2023-12-22T05:47:26;3.07;;;0.50;;
66559;SDS011;53413;49.878;8.142;2023-12-22T05:49:51;3.57;;;0.63;;
66559;SDS011;53413;49.878;8.142;2023-12-22T05:52:16;2.72;;;0.43;;
66559;SDS011;53413;49.878;8.142;2023-12-22T05:54:42;3.20;;;0.60;;
66559;SDS011;53413;49.878;8.142;2023-12-22T05:57:07;3.37;;;0.50;;
66559;SDS011;53413;49.878;8.142;2023-12-22T05:59:32;4.63;;;0.80;;
66559;SDS011;53413;49.878;8.142;2023-12-22T06:01:59;4.55;;;0.50;;
66559;SDS011;53413;49.878;8.142;2023-12-22T06:04:25;3.93;;;0.60;;
66559;SDS011;53413;49.878;8.142;2023-12-22T06:06:51;5.00;;;0.65;;
66559;SDS011;53413;49.878;8.142;2023-12-22T06:09:16;3.93;;;0.87;;
66559;SDS011;53413;49.878;8.142;2023-12-22T06:11:43;6.13;;;1.00;;
66559;SDS011;53413;49.878;8.142;2023-12-22T06:14:09;3.57;;;0.60;;
66559;SDS011;53413;49.878;8.142;2023-12-22T06:16:35;2.83;;;0.60;;
66559;SDS011;53413;49.878;8.142;2023-12-22T06:19:00;4.80;;;0.73;;
66559;SDS011;53413;49.878;8.142;2023-12-22T06:21:25;4.53;;;0.70;;
66559;SDS011;53413;49.878;8.142;2023-12-22T06:23:51;7.70;;;0.90;;
66559;SDS011;53413;49.878;8.142;2023-12-22T06:26:16;6.50;;;1.10;;
66559;SDS011;53413;49.878;8.142;2023-12-22T06:28:41;3.57;;;0.60;;
66559;SDS011;53413;49.878;8.142;2023-12-22T06:31:07;4.23;;;0.70;;
66559;SDS011;53413;49.878;8.142;2023-12-22T06:33:34;10.75;;;1.00;;
66559;SDS011;53413;49.878;8.142;2023-12-22T06:36:00;6.93;;;0.88;;
66559;SDS011;53413;49.878;8.142;2023-12-22T06:38:26;8.33;;;1.27;;
66559;SDS011;53413;49.878;8.142;2023-12-22T06:40:51;6.63;;;0.80;;
66559;SDS011;53413;49.878;8.142;2023-12-22T06:43:16;8.13;;;0.90;;
66559;SDS011;53413;49.878;8.142;2023-12-22T06:45:41;6.13;;;1.23;;
66559;SDS011;53413;49.878;8.142;2023-12-22T06:48:07;6.03;;;1.00;;
66559;SDS011;53413;49.878;8.142;2023-12-22T06:50:34;5.75;;;1.05;;
66559;SDS011;53413;49.878;8.142;2023-12-22T06:53:01;5.45;;;1.02;;
66559;SDS011;53413;49.878;8.142;2023-12-22T06:55:27;5.43;;;1.00;;
66559;SDS011;53413;49.878;8.142;2023-12-22T06:57:52;6.20;;;1.10;;
66559;SDS011;53413;49.878;8.142;2023-12-22T07:00:18;7.60;;;1.00;;
66559;SDS011;53413;49.878;8.142;2023-12-22T07:02:44;8.88;;;0.95;;
66559;SDS011;53413;49.878;8.142;2023-12-22T07:07:35;5.97;;;0.83;;
66559;SDS011;53413;49.878;8.142;2023-12-22T07:10:01;4.03;;;0.77;;
66559;SDS011;53413;49.878;8.142;2023-12-22T07:12:26;2.90;;;0.80;;
66559;SDS011;53413;49.878;8.142;2023-12-22T07:14:52;6.57;;;0.80;;
66559;SDS011;53413;49.878;8.142;2023-12-22T07:17:17;4.87;;;0.90;;
66559;SDS011;53413;49.878;8.142;2023-12-22T07:19:42;5.53;;;0.90;;
66559;SDS011;53413;49.878;8.142;2023-12-22T07:22:08;4.22;;;0.75;;
66559;SDS011;53413;49.878;8.142;2023-12-22T07:24:33;5.97;;;0.70;;
66559;SDS011;53413;49.878;8.142;2023-12-22T07:26:59;4.67;;;0.70;;
66559;SDS011;53413;49.878;8.142;2023-12-22T07:29:24;5.10;;;0.60;;
66559;SDS011;53413;49.878;8.142;2023-12-22T07:31:49;5.57;;;0.70;;
66559;SDS011;53413;49.878;8.142;2023-12-22T07:34:15;4.47;;;1.00;;
66559;SDS011;53413;49.878;8.142;2023-12-22T07:36:42;3.90;;;0.73;;
66559;SDS011;53413;49.878;8.142;2023-12-22T07:39:07;8.10;;;0.70;;
66559;SDS011;53413;49.878;8.142;2023-12-22T07:41:34;5.25;;;0.85;;
66559;SDS011;53413;49.878;8.142;2023-12-22T07:43:59;3.77;;;0.53;;
66559;SDS011;53413;49.878;8.142;2023-12-22T07:46:26;3.05;;;0.68;;
66559;SDS011;53413;49.878;8.142;2023-12-22T07:48:53;3.30;;;0.70;;
66559;SDS011;53413;49.878;8.142;2023-12-22T07:51:18;4.70;;;0.80;;
66559;SDS011;53413;49.878;8.142;2023-12-22T07:53:44;3.53;;;0.60;;
66559;SDS011;53413;49.878;8.142;2023-12-22T07:56:09;3.73;;;0.70;;
66559;SDS011;53413;49.878;8.142;2023-12-22T07:58:35;2.22;;;0.50;;
66559;SDS011;53413;49.878;8.142;2023-12-22T08:01:01;3.50;;;0.50;;
66559;SDS011;53413;49.878;8.142;2023-12-22T08:03:27;2.20;;;0.50;;
66559;SDS011;53413;49.878;8.142;2023-12-22T08:05:53;2.87;;;0.67;;
66559;SDS011;53413;49.878;8.142;2023-12-22T08:08:19;3.47;;;0.57;;
66559;SDS011;53413;49.878;8.142;2023-12-22T08:10:44;3.33;;;0.63;;
66559;SDS011;53413;49.878;8.142;2023-12-22T08:13:09;2.90;;;0.47;;
66559;SDS011;53413;49.878;8.142;2023-12-22T08:15:35;2.73;;;0.70;;
66559;SDS011;53413;49.878;8.142;2023-12-22T08:18:00;3.20;;;0.60;;
66559;SDS011;53413;49.878;8.142;2023-12-22T08:20:25;2.80;;;0.50;;
66559;SDS011;53413;49.878;8.142;2023-12-22T08:22:51;3.67;;;0.50;;
66559;SDS011;53413;49.878;8.142;2023-12-22T08:25:16;2.03;;;0.40;;
66559;SDS011;53413;49.878;8.142;2023-12-22T08:27:44;1.20;;;0.40;;
66559;SDS011;53413;49.878;8.142;2023-12-22T08:30:10;3.58;;;0.50;;
66559;SDS011;53413;49.878;8.142;2023-12-22T08:32:35;3.22;;;0.50;;
66559;SDS011;53413;49.878;8.142;2023-12-22T08:35:01;3.43;;;0.50;;
66559;SDS011;53413;49.878;8.142;2023-12-22T08:37:28;3.33;;;0.57;;
66559;SDS011;53413;49.878;8.142;2023-12-22T08:39:53;4.57;;;0.70;;
66559;SDS011;53413;49.878;8.142;2023-12-22T08:42:18;2.83;;;0.60;;
66559;SDS011;53413;49.878;8.142;2023-12-22T08:44:44;2.97;;;0.80;;
66559;SDS011;53413;49.878;8.142;2023-12-22T08:47:09;8.40;;;0.80;;
66559;SDS011;53413;49.878;8.142;2023-12-22T08:49:34;3.80;;;0.70;;
66559;SDS011;53413;49.878;8.142;2023-12-22T08:52:00;6.63;;;1.00;;
66559;SDS011;53413;49.878;8.142;2023-12-22T08:54:26;5.30;;;0.82;;
66559;SDS011;53413;49.878;8.142;2023-12-22T08:56:52;6.03;;;0.97;;
66559;SDS011;53413;49.878;8.142;2023-12-22T08:59:17;6.73;;;1.00;;
66559;SDS011;53413;49.878;8.142;2023-12-22T09:01:43;4.72;;;0.80;;
66559;SDS011;53413;49.878;8.142;2023-12-22T09:04:09;5.27;;;0.90;;
66559;SDS011;53413;49.878;8.142;2023-12-22T09:06:36;5.10;;;0.93;;
66559;SDS011;53413;49.878;8.142;2023-12-22T09:09:01;8.73;;;1.00;;
66559;SDS011;53413;49.878;8.142;2023-12-22T09:11:28;7.55;;;1.02;;
66559;SDS011;53413;49.878;8.142;2023-12-22T09:13:54;7.40;;;1.30;;
66559;SDS011;53413;49.878;8.142;2023-12-22T09:16:23;6.47;;;1.20;;
66559;SDS011;53413;49.878;8.142;2023-12-22T09:18:50;9.23;;;1.27;;
66559;SDS011;53413;49.878;8.142;2023-12-22T09:21:16;4.47;;;0.77;;
66559;SDS011;53413;49.878;8.142;2023-12-22T09:23:43;6.55;;;1.23;;
66559;SDS011;53413;49.878;8.142;2023-12-22T09:26:14;8.77;;;1.10;;
66559;SDS011;53413;49.878;8.142;2023-12-22T09:28:40;8.50;;;1.35;;
66559;SDS011;53413;49.878;8.142;2023-12-22T09:31:09;10.00;;;1.35;;
66559;SDS011;53413;49.878;8.142;2023-12-22T09:33:34;7.13;;;1.25;;
66559;SDS011;53413;49.878;8.142;2023-12-22T09:36:00;7.70;;;0.90;;
66559;SDS011;53413;49.878;8.142;2023-12-22T09:38:25;6.13;;;1.37;;
66559;SDS011;53413;49.878;8.142;2023-12-22T09:40:51;9.13;;;1.60;;
66559;SDS011;53413;49.878;8.142;2023-12-22T09:43:16;6.65;;;1.02;;
66559;SDS011;53413;49.878;8.142;2023-12-22T09:45:45;7.30;;;1.50;;
66559;SDS011;53413;49.878;8.142;2023-12-22T09:48:11;8.18;;;1.40;;
66559;SDS011;53413;49.878;8.142;2023-12-22T09:50:42;4.03;;;1.00;;
66559;SDS011;53413;49.878;8.142;2023-12-22T09:53:09;6.57;;;1.10;;
66559;SDS011;53413;49.878;8.142;2023-12-22T09:55:36;9.15;;;1.35;;
66559;SDS011;53413;49.878;8.142;2023-12-22T09:58:02;8.90;;;1.43;;
66559;SDS011;53413;49.878;8.142;2023-12-22T10:00:29;8.90;;;1.42;;
66559;SDS011;53413;49.878;8.142;2023-12-22T10:02:56;6.28;;;1.33;;
66559;SDS011;53413;49.878;8.142;2023-12-22T10:05:22;9.52;;;1.20;;
66559;SDS011;53413;49.878;8.142;2023-12-22T10:07:47;5.78;;;1.10;;
66559;SDS011;53413;49.878;8.142;2023-12-22T10:10:16;7.43;;;1.38;;
66559;SDS011;53413;49.878;8.142;2023-12-22T10:12:44;8.67;;;1.10;;
66559;SDS011;53413;49.878;8.142;2023-12-22T10:15:10;10.52;;;1.48;;
66559;SDS011;53413;49.878;8.142;2023-12-22T10:17:37;5.85;;;1.10;;
66559;SDS011;53413;49.878;8.142;2023-12-22T10:20:04;8.88;;;1.23;;
66559;SDS011;53413;49.878;8.142;2023-12-22T10:22:29;9.00;;;1.30;;
66559;SDS011;53413;49.878;8.142;2023-12-22T10:24:55;6.00;;;1.00;;
66559;SDS011;53413;49.878;8.142;2023-12-22T10:27:20;5.90;;;1.07;;
66559;SDS011;53413;49.878;8.142;2023-12-22T10:29:49;6.65;;;1.02;;
66559;SDS011;53413;49.878;8.142;2023-12-22T10:32:15;5.97;;;1.27;;
66559;SDS011;53413;49.878;8.142;2023-12-22T10:34:41;7.28;;;1.15;;
66559;SDS011;53413;49.878;8.142;2023-12-22T10:37:07;6.82;;;1.20;;
66559;SDS011;53413;49.878;8.142;2023-12-22T10:39:33;7.68;;;1.27;;
66559;SDS011;53413;49.878;8.142;2023-12-22T10:42:01;8.97;;;1.40;;
66559;SDS011;53413;49.878;8.142;2023-12-22T10:44:27;7.05;;;1.00;;
66559;SDS011;53413;49.878;8.142;2023-12-22T10:46:54;4.93;;;0.80;;
66559;SDS011;53413;49.878;8.142;2023-12-22T10:49:20;7.40;;;1.13;;
66559;SDS011;53413;49.878;8.142;2023-12-22T10:51:46;5.57;;;1.00;;
66559;SDS011;53413;49.878;8.142;2023-12-22T10:54:11;7.57;;;1.20;;
66559;SDS011;53413;49.878;8.142;2023-12-22T10:56:37;7.40;;;1.10;;
66559;SDS011;53413;49.878;8.142;2023-12-22T10:59:04;5.15;;;1.00;;
66559;SDS011;53413;49.878;8.142;2023-12-22T11:01:31;6.27;;;1.10;;
66559;SDS011;53413;49.878;8.142;2023-12-22T11:04:01;7.75;;;1.35;;
66559;SDS011;53413;49.878;8.142;2023-12-22T11:06:29;8.82;;;1.20;;
66559;SDS011;53413;49.878;8.142;2023-12-22T11:08:56;5.50;;;1.20;;
66559;SDS011;53413;49.878;8.142;2023-12-22T11:11:40;5.07;;;1.08;;
66559;SDS011;53413;49.878;8.142;2023-12-22T11:14:06;7.27;;;1.10;;
66559;SDS011;53413;49.878;8.142;2023-12-22T11:16:33;7.05;;;1.20;;
66559;SDS011;53413;49.878;8.142;2023-12-22T11:19:00;8.30;;;1.77;;
66559;SDS011;53413;49.878;8.142;2023-12-22T11:21:26;6.53;;;1.17;;
66559;SDS011;53413;49.878;8.142;2023-12-22T11:23:53;4.63;;;0.70;;
66559;SDS011;53413;49.878;8.142;2023-12-22T11:26:22;8.20;;;1.07;;
66559;SDS011;53413;49.878;8.142;2023-12-22T11:28:49;4.00;;;0.90;;
66559;SDS011;53413;49.878;8.142;2023-12-22T11:31:16;5.78;;;0.88;;
66559;SDS011;53413;49.878;8.142;2023-12-22T11:33:46;5.90;;;1.08;;
66559;SDS011;53413;49.878;8.142;2023-12-22T11:36:12;5.55;;;0.90;;
66559;SDS011;53413;49.878;8.142;2023-12-22T11:38:39;6.17;;;1.07;;
66559;SDS011;53413;49.878;8.142;2023-12-22T11:41:05;5.95;;;0.70;;
66559;SDS011;53413;49.878;8.142;2023-12-22T11:43:34;4.32;;;0.85;;
66559;SDS011;53413;49.878;8.142;2023-12-22T11:46:01;4.30;;;0.90;;
66559;SDS011;53413;49.878;8.142;2023-12-22T11:48:28;7.68;;;1.30;;
66559;SDS011;53413;49.878;8.142;2023-12-22T11:50:54;5.90;;;1.50;;
66559;SDS011;53413;49.878;8.142;2023-12-22T11:53:23;4.88;;;1.20;;
66559;SDS011;53413;49.878;8.142;2023-12-22T11:56:05;4.97;;;1.20;;
66559;SDS011;53413;49.878;8.142;2023-12-22T11:58:33;4.00;;;0.90;;
66559;SDS011;53413;49.878;8.142;2023-12-22T12:01:02;8.80;;;1.67;;
66559;SDS011;53413;49.878;8.142;2023-12-22T12:03:30;3.70;;;0.90;;
66559;SDS011;53413;49.878;8.142;2023-12-22T12:06:09;6.45;;;1.30;;
66559;SDS011;53413;49.878;8.142;2023-12-22T12:08:35;4.75;;;1.00;;
66559;SDS011;53413;49.878;8.142;2023-12-22T12:11:00;5.83;;;1.10;;
66559;SDS011;53413;49.878;8.142;2023-12-22T12:13:28;6.38;;;1.60;;
66559;SDS011;53413;49.878;8.142;2023-12-22T12:15:56;5.70;;;1.27;;
66559;SDS011;53413;49.878;8.142;2023-12-22T12:18:35;5.00;;;0.95;;
66559;SDS011;53413;49.878;8.142;2023-12-22T12:21:00;4.05;;;0.70;;
66559;SDS011;53413;49.878;8.142;2023-12-22T12:23:26;6.00;;;0.80;;
66559;SDS011;53413;49.878;8.142;2023-12-22T12:25:53;3.05;;;0.70;;
66559;SDS011;53413;49.878;8.142;2023-12-22T12:28:24;2.92;;;0.70;;
66559;SDS011;53413;49.878;8.142;2023-12-22T12:30:56;3.38;;;0.63;;
66559;SDS011;53413;49.878;8.142;2023-12-22T12:33:26;4.30;;;0.80;;
66559;SDS011;53413;49.878;8.142;2023-12-22T12:35:54;3.17;;;0.70;;
66559;SDS011;53413;49.878;8.142;2023-12-22T12:38:21;2.47;;;0.70;;
66559;SDS011;53413;49.878;8.142;2023-12-22T12:40:53;3.25;;;1.10;;
66559;SDS011;53413;49.878;8.142;2023-12-22T12:43:21;2.85;;;0.90;;
66559;SDS011;53413;49.878;8.142;2023-12-22T12:45:47;2.60;;;0.53;;
66559;SDS011;53413;49.878;8.142;2023-12-22T12:48:13;2.77;;;0.47;;
66559;SDS011;53413;49.878;8.142;2023-12-22T12:50:43;1.50;;;0.40;;
66559;SDS011;53413;49.878;8.142;2023-12-22T12:53:08;1.57;;;0.47;;
66559;SDS011;53413;49.878;8.142;2023-12-22T12:55:33;1.30;;;0.38;;
66559;SDS011;53413;49.878;8.142;2023-12-22T12:57:59;1.48;;;0.40;;
66559;SDS011;53413;49.878;8.142;2023-12-22T13:00:27;1.43;;;0.30;;
66559;SDS011;53413;49.878;8.142;2023-12-22T13:03:01;1.35;;;0.30;;
66559;SDS011;53413;49.878;8.142;2023-12-22T13:05:28;0.60;;;0.20;;
66559;SDS011;53413;49.878;8.142;2023-12-22T13:08:05;1.67;;;0.30;;
66559;SDS011;53413;49.878;8.142;2023-12-22T13:10:32;1.63;;;0.40;;
66559;SDS011;53413;49.878;8.142;2023-12-22T13:12:58;1.50;;;0.37;;
66559;SDS011;53413;49.878;8.142;2023-12-22T13:15:24;1.80;;;0.40;;
66559;SDS011;53413;49.878;8.142;2023-12-22T13:17:49;1.27;;;0.30;;
66559;SDS011;53413;49.878;8.142;2023-12-22T13:20:15;2.07;;;0.30;;
66559;SDS011;53413;49.878;8.142;2023-12-22T13:22:40;2.00;;;0.40;;
66559;SDS011;53413;49.878;8.142;2023-12-22T13:25:06;1.70;;;0.40;;
66559;SDS011;53413;49.878;8.142;2023-12-22T13:27:44;1.20;;;0.30;;
66559;SDS011;53413;49.878;8.142;2023-12-22T13:30:13;1.80;;;0.43;;
66559;SDS011;53413;49.878;8.142;2023-12-22T13:32:58;1.97;;;0.50;;
66559;SDS011;53413;49.878;8.142;2023-12-22T13:35:23;2.47;;;0.60;;
66559;SDS011;53413;49.878;8.142;2023-12-22T13:37:51;1.90;;;0.50;;
66559;SDS011;53413;49.878;8.142;2023-12-22T13:40:16;1.92;;;0.47;;
66559;SDS011;53413;49.878;8.142;2023-12-22T13:42:41;2.07;;;0.50;;
66559;SDS011;53413;49.878;8.142;2023-12-22T13:45:11;1.75;;;0.40;;
66559;SDS011;53413;49.878;8.142;2023-12-22T13:47:43;2.20;;;0.40;;
66559;SDS011;53413;49.878;8.142;2023-12-22T13:50:14;2.03;;;0.40;;
66559;SDS011;53413;49.878;8.142;2023-12-22T13:52:40;1.60;;;0.40;;
66559;SDS011;53413;49.878;8.142;2023-12-22T13:57:37;1.95;;;0.40;;
66559;SDS011;53413;49.878;8.142;2023-12-22T14:02:41;2.25;;;0.57;;
66559;SDS011;53413;49.878;8.142;2023-12-22T14:05:07;2.17;;;0.50;;
66559;SDS011;53413;49.878;8.142;2023-12-22T14:07:32;1.60;;;0.50;;
66559;SDS011;53413;49.878;8.142;2023-12-22T14:10:03;2.03;;;0.50;;
66559;SDS011;53413;49.878;8.142;2023-12-22T14:12:32;2.20;;;0.50;;
66559;SDS011;53413;49.878;8.142;2023-12-22T14:14:58;2.10;;;0.47;;
66559;SDS011;53413;49.878;8.142;2023-12-22T14:17:23;3.58;;;0.60;;
66559;SDS011;53413;49.878;8.142;2023-12-22T14:19:49;4.43;;;0.80;;
66559;SDS011;53413;49.878;8.142;2023-12-22T14:22:14;3.13;;;0.80;;
66559;SDS011;53413;49.878;8.142;2023-12-22T14:24:40;2.55;;;0.70;;
66559;SDS011;53413;49.878;8.142;2023-12-22T14:27:05;3.10;;;0.60;;
66559;SDS011;53413;49.878;8.142;2023-12-22T14:29:31;4.37;;;0.90;;
66559;SDS011;53413;49.878;8.142;2023-12-22T14:31:56;3.07;;;0.70;;
66559;SDS011;53413;49.878;8.142;2023-12-22T14:34:21;2.00;;;0.50;;
66559;SDS011;53413;49.878;8.142;2023-12-22T14:36:47;1.95;;;0.40;;
66559;SDS011;53413;49.878;8.142;2023-12-22T14:39:12;3.13;;;0.60;;
66559;SDS011;53413;49.878;8.142;2023-12-22T14:41:41;2.93;;;0.60;;
66559;SDS011;53413;49.878;8.142;2023-12-22T14:44:10;2.67;;;0.50;;
66559;SDS011;53413;49.878;8.142;2023-12-22T14:46:39;1.77;;;0.40;;
66559;SDS011;53413;49.878;8.142;2023-12-22T14:49:05;1.77;;;0.40;;
66559;SDS011;53413;49.878;8.142;2023-12-22T14:51:37;3.72;;;0.50;;
66559;SDS011;53413;49.878;8.142;2023-12-22T14:54:03;1.65;;;0.40;;
66559;SDS011;53413;49.878;8.142;2023-12-22T14:56:29;1.95;;;0.38;;